createdAt,value
2018-08-31T00:01:35.395Z,3.57
2018-08-31T00:04:39.036Z,4.40
2018-08-31T00:07:19.866Z,3.67
2018-08-31T00:09:55.657Z,4.03
2018-08-31T00:12:29.700Z,4.03
2018-08-31T00:14:58.189Z,3.50
2018-08-31T00:17:26.663Z,3.73
2018-08-31T00:19:55.131Z,3.70
2018-08-31T00:22:23.626Z,3.47
2018-08-31T00:24:58.518Z,3.13
2018-08-31T00:27:32.698Z,3.60
2018-08-31T00:31:05.113Z,3.50
2018-08-31T00:34:39.953Z,3.40
2018-08-31T00:39:20.634Z,3.70
2018-08-31T00:41:54.635Z,3.60
2018-08-31T00:44:28.595Z,3.20
2018-08-31T00:46:57.073Z,3.13
2018-08-31T00:49:25.579Z,3.40
2018-08-31T00:51:54.069Z,3.47
2018-08-31T00:54:22.557Z,2.53
2018-08-31T00:56:51.013Z,2.80
2018-08-31T00:59:19.464Z,3.00
2018-08-31T01:01:47.955Z,3.33
2018-08-31T01:04:16.432Z,2.93
2018-08-31T01:06:44.914Z,3.23
2018-08-31T01:09:13.385Z,3.10
2018-08-31T01:11:43.007Z,2.93
2018-08-31T01:14:11.494Z,2.80
2018-08-31T01:16:39.993Z,3.13
2018-08-31T01:19:08.458Z,2.83
2018-08-31T01:21:36.923Z,3.30
2018-08-31T01:24:05.456Z,2.93
2018-08-31T01:26:33.951Z,2.83
2018-08-31T01:29:02.421Z,2.43
2018-08-31T01:31:30.913Z,3.03
2018-08-31T01:33:59.405Z,3.17
2018-08-31T01:36:27.888Z,3.30
2018-08-31T01:38:56.352Z,3.20
2018-08-31T01:41:24.844Z,2.40
2018-08-31T01:43:53.293Z,3.10
2018-08-31T01:46:21.787Z,2.87
2018-08-31T01:48:50.237Z,2.90
2018-08-31T01:51:21.119Z,2.60
2018-08-31T01:53:49.569Z,2.63
2018-08-31T01:56:18.100Z,2.90
2018-08-31T01:58:46.632Z,2.77
2018-08-31T02:01:15.128Z,3.33
2018-08-31T02:03:43.597Z,2.73
2018-08-31T02:06:12.102Z,2.77
2018-08-31T02:08:46.044Z,2.90
2018-08-31T02:11:14.542Z,2.60
2018-08-31T02:13:43.006Z,2.50
2018-08-31T02:16:11.536Z,3.47
2018-08-31T02:18:40.007Z,2.80
2018-08-31T02:21:08.493Z,3.43
2018-08-31T02:23:37.001Z,3.70
2018-08-31T02:26:05.506Z,2.83
2018-08-31T02:28:33.967Z,3.00
2018-08-31T02:31:02.464Z,3.23
2018-08-31T02:33:30.926Z,2.63
2018-08-31T02:35:59.413Z,3.00
2018-08-31T02:38:27.878Z,3.60
2018-08-31T02:40:56.368Z,3.30
2018-08-31T02:43:24.848Z,3.17
2018-08-31T02:45:53.334Z,3.10
2018-08-31T02:48:21.801Z,2.90
2018-08-31T02:50:50.289Z,3.20
2018-08-31T02:53:18.767Z,3.10
2018-08-31T02:55:47.298Z,3.40
2018-08-31T02:58:15.716Z,3.27
2018-08-31T03:00:44.200Z,3.20
2018-08-31T03:03:12.685Z,3.00
2018-08-31T03:05:41.158Z,2.67
2018-08-31T03:08:09.673Z,3.60
2018-08-31T03:10:38.132Z,3.30
2018-08-31T03:13:06.655Z,3.27
2018-08-31T03:15:35.136Z,2.93
2018-08-31T03:18:03.776Z,3.10
2018-08-31T03:20:32.283Z,2.67
2018-08-31T03:23:01.362Z,2.97
2018-08-31T03:25:29.816Z,3.20
2018-08-31T03:27:58.306Z,3.27
2018-08-31T03:30:26.824Z,3.20
2018-08-31T03:32:55.309Z,3.13
2018-08-31T03:35:23.775Z,3.40
2018-08-31T03:37:52.306Z,3.07
2018-08-31T03:40:20.778Z,3.20
2018-08-31T03:42:49.288Z,3.37
2018-08-31T03:45:17.762Z,3.43
2018-08-31T03:47:46.261Z,3.17
2018-08-31T03:50:14.729Z,3.23
2018-08-31T03:52:43.237Z,3.33
2018-08-31T03:55:11.750Z,3.53
2018-08-31T03:57:40.337Z,3.00
2018-08-31T04:00:09.252Z,3.17
2018-08-31T04:02:37.985Z,3.30
2018-08-31T04:05:06.716Z,3.30
2018-08-31T04:07:35.245Z,3.17
2018-08-31T04:10:03.745Z,3.13
2018-08-31T04:12:32.242Z,3.23
2018-08-31T04:15:00.734Z,3.60
2018-08-31T04:17:29.208Z,3.00
2018-08-31T04:19:57.672Z,3.50
2018-08-31T04:22:27.239Z,3.23
2018-08-31T04:24:55.716Z,3.00
2018-08-31T04:27:24.198Z,3.43
2018-08-31T04:29:52.657Z,3.30
2018-08-31T04:32:21.159Z,3.60
2018-08-31T04:34:49.627Z,3.50
2018-08-31T04:37:18.174Z,3.73
2018-08-31T04:39:46.623Z,3.20
2018-08-31T04:42:15.122Z,3.23
2018-08-31T04:44:43.591Z,3.40
2018-08-31T04:47:12.157Z,3.87
2018-08-31T04:49:40.632Z,3.77
2018-08-31T04:52:09.882Z,3.77
2018-08-31T04:54:38.383Z,3.53
2018-08-31T04:57:06.864Z,3.30
2018-08-31T04:59:35.369Z,3.73
2018-08-31T05:02:03.845Z,3.93
2018-08-31T05:04:32.305Z,3.90
2018-08-31T05:07:00.868Z,3.47
2018-08-31T05:09:29.340Z,3.80
2018-08-31T05:11:57.829Z,3.40
2018-08-31T05:14:26.325Z,3.97
2018-08-31T05:16:54.811Z,5.13
2018-08-31T05:19:23.364Z,5.67
2018-08-31T05:21:51.833Z,4.67
2018-08-31T05:24:20.375Z,4.37
2018-08-31T05:26:48.918Z,3.57
2018-08-31T05:29:17.485Z,4.57
2018-08-31T05:31:46.008Z,4.73
2018-08-31T05:34:14.549Z,3.57
2018-08-31T05:36:43.341Z,4.40
2018-08-31T05:39:12.490Z,3.53
2018-08-31T05:41:41.686Z,3.80
2018-08-31T05:44:10.376Z,3.83
2018-08-31T05:46:39.057Z,3.93
2018-08-31T05:49:07.544Z,5.13
2018-08-31T05:51:36.037Z,4.13
2018-08-31T05:54:04.560Z,4.60
2018-08-31T05:56:33.041Z,4.00
2018-08-31T05:59:01.581Z,5.17
2018-08-31T06:01:30.610Z,9.20
2018-08-31T06:03:59.085Z,4.67
2018-08-31T06:06:27.626Z,4.73
2018-08-31T06:08:56.102Z,4.90
2018-08-31T06:11:24.592Z,4.57
2018-08-31T06:13:53.087Z,4.13
2018-08-31T06:16:21.573Z,4.10
2018-08-31T06:18:50.046Z,3.47
2018-08-31T06:21:18.533Z,3.23
2018-08-31T06:23:47.108Z,3.73
2018-08-31T06:26:15.568Z,3.70
2018-08-31T06:28:44.063Z,4.20
2018-08-31T06:31:12.555Z,3.53
2018-08-31T06:33:41.083Z,3.43
2018-08-31T06:36:09.583Z,3.80
2018-08-31T06:38:38.176Z,3.57
2018-08-31T06:41:07.002Z,3.37
2018-08-31T06:43:35.493Z,3.60
2018-08-31T06:46:03.993Z,3.47
2018-08-31T06:48:32.507Z,3.73
2018-08-31T06:51:00.989Z,4.17
2018-08-31T06:53:29.456Z,4.20
2018-08-31T06:55:57.930Z,4.43
2018-08-31T06:58:26.389Z,4.63
2018-08-31T07:00:54.941Z,3.80
2018-08-31T07:03:23.454Z,4.53
2018-08-31T07:05:51.904Z,4.10
2018-08-31T07:08:20.361Z,3.50
2018-08-31T07:10:48.893Z,4.57
2018-08-31T07:13:17.357Z,4.40
2018-08-31T07:15:45.825Z,4.23
2018-08-31T07:18:14.339Z,3.63
2018-08-31T07:20:42.888Z,3.67
2018-08-31T07:23:11.388Z,4.23
2018-08-31T07:25:39.924Z,3.43
2018-08-31T07:28:08.439Z,3.70
2018-08-31T07:30:36.932Z,4.27
2018-08-31T07:33:05.413Z,3.93
2018-08-31T07:35:33.923Z,4.07
2018-08-31T07:38:02.435Z,5.13
2018-08-31T07:40:31.056Z,13.30
2018-08-31T07:42:59.540Z,13.13
2018-08-31T07:45:28.067Z,18.90
2018-08-31T07:47:56.546Z,8.67
2018-08-31T07:50:25.022Z,6.23
2018-08-31T07:52:53.613Z,11.40
2018-08-31T07:55:22.121Z,7.67
2018-08-31T07:57:50.640Z,5.73
2018-08-31T08:00:19.188Z,4.53
2018-08-31T08:02:47.847Z,6.03
2018-08-31T08:05:16.356Z,6.10
2018-08-31T08:07:44.930Z,5.20
2018-08-31T08:10:13.400Z,4.27
2018-08-31T08:12:41.993Z,5.00
2018-08-31T08:15:10.467Z,6.70
2018-08-31T08:17:38.995Z,4.20
2018-08-31T08:20:07.794Z,5.93
2018-08-31T08:22:36.426Z,4.10
2018-08-31T08:25:04.952Z,4.13
2018-08-31T08:27:33.510Z,6.63
2018-08-31T08:30:02.073Z,4.40
2018-08-31T08:32:30.609Z,4.87
2018-08-31T08:34:59.192Z,4.90
2018-08-31T08:37:28.601Z,4.23
2018-08-31T08:39:57.187Z,6.00
2018-08-31T08:42:25.963Z,5.17
2018-08-31T08:44:54.406Z,5.73
2018-08-31T08:47:22.945Z,4.87
2018-08-31T08:49:51.466Z,5.00
2018-08-31T08:52:19.972Z,4.47
2018-08-31T08:54:48.497Z,4.00
2018-08-31T08:57:16.991Z,4.80
2018-08-31T08:59:45.500Z,4.63
2018-08-31T09:02:14.043Z,3.80
2018-08-31T09:04:42.497Z,4.00
2018-08-31T09:07:13.358Z,5.07
2018-08-31T09:09:41.883Z,4.17
2018-08-31T09:12:10.469Z,4.37
2018-08-31T09:14:39.766Z,4.90
2018-08-31T09:17:08.317Z,4.60
2018-08-31T09:19:36.829Z,4.63
2018-08-31T09:22:05.451Z,4.27
2018-08-31T09:24:34.038Z,4.67
2018-08-31T09:27:02.568Z,5.10
2018-08-31T09:29:31.033Z,4.87
2018-08-31T09:32:03.847Z,3.50
2018-08-31T09:34:32.330Z,4.70
2018-08-31T09:37:01.108Z,4.57
2018-08-31T09:39:29.559Z,4.60
2018-08-31T09:41:58.073Z,4.50
2018-08-31T09:44:26.557Z,4.60
2018-08-31T09:46:55.305Z,3.53
2018-08-31T09:49:23.785Z,4.43
2018-08-31T09:51:52.276Z,4.10
2018-08-31T09:54:20.747Z,4.03
2018-08-31T09:56:49.395Z,3.37
2018-08-31T09:59:17.910Z,4.67
2018-08-31T10:01:46.372Z,4.50
2018-08-31T10:04:15.490Z,3.43
2018-08-31T10:06:43.970Z,4.70
2018-08-31T10:09:12.493Z,4.20
2018-08-31T10:11:40.993Z,3.60
2018-08-31T10:14:09.525Z,4.00
2018-08-31T10:16:37.989Z,4.77
2018-08-31T10:19:06.636Z,3.80
2018-08-31T10:21:35.238Z,3.77
2018-08-31T10:24:03.875Z,4.07
2018-08-31T10:26:32.451Z,4.30
2018-08-31T10:29:01.045Z,4.33
2018-08-31T10:31:29.682Z,4.30
2018-08-31T10:33:58.348Z,5.40
2018-08-31T10:36:26.908Z,4.27
2018-08-31T10:38:55.453Z,4.17
2018-08-31T10:41:24.155Z,4.30
2018-08-31T10:43:52.737Z,4.87
2018-08-31T10:46:21.280Z,4.83
2018-08-31T10:48:49.775Z,4.80
2018-08-31T10:51:18.369Z,4.87
2018-08-31T10:53:46.920Z,4.97
2018-08-31T10:56:15.429Z,5.00
2018-08-31T10:58:43.921Z,5.30
2018-08-31T11:01:12.544Z,4.63
2018-08-31T11:03:41.222Z,4.90
2018-08-31T11:06:09.806Z,4.37
2018-08-31T11:08:38.419Z,4.30
2018-08-31T11:11:07.053Z,4.60
2018-08-31T11:13:35.654Z,5.13
2018-08-31T11:16:04.282Z,4.90
2018-08-31T11:18:32.894Z,4.77
2018-08-31T11:21:01.366Z,5.40
2018-08-31T11:23:29.873Z,4.70
2018-08-31T11:25:58.363Z,4.73
2018-08-31T11:28:26.851Z,4.73
2018-08-31T11:30:55.332Z,4.67
2018-08-31T11:33:23.904Z,4.83
2018-08-31T11:35:52.375Z,5.07
2018-08-31T11:38:20.861Z,4.80
2018-08-31T11:40:49.341Z,5.23
2018-08-31T11:43:17.962Z,5.00
2018-08-31T11:45:46.585Z,5.13
2018-08-31T11:48:15.066Z,4.87
2018-08-31T11:50:43.528Z,4.50
2018-08-31T11:53:12.017Z,4.77
2018-08-31T11:55:40.509Z,5.53
2018-08-31T11:58:08.994Z,4.80
2018-08-31T12:00:37.561Z,5.03
2018-08-31T12:03:06.044Z,5.00
2018-08-31T12:05:34.577Z,5.57
2018-08-31T12:08:03.279Z,94.00
2018-08-31T12:10:31.757Z,67.20
2018-08-31T12:13:00.267Z,22.67
2018-08-31T12:15:28.754Z,72.17
2018-08-31T12:17:57.212Z,34.90
2018-08-31T12:20:25.704Z,26.60
2018-08-31T12:22:54.218Z,79.90
2018-08-31T12:25:22.721Z,74.13
2018-08-31T12:27:51.223Z,31.33
2018-08-31T12:30:19.701Z,15.80
2018-08-31T12:32:48.219Z,17.43
2018-08-31T12:35:16.724Z,16.00
2018-08-31T12:37:45.196Z,7.43
2018-08-31T12:40:13.690Z,8.70
2018-08-31T12:42:42.179Z,9.40
2018-08-31T12:45:10.671Z,6.23
2018-08-31T12:47:39.176Z,7.63
2018-08-31T12:50:07.686Z,7.00
2018-08-31T12:52:36.175Z,6.77
2018-08-31T12:55:04.700Z,7.40
2018-08-31T12:57:33.184Z,5.10
2018-08-31T13:00:02.131Z,5.23
2018-08-31T13:02:31.746Z,6.03
2018-08-31T13:05:01.780Z,6.23
2018-08-31T13:07:30.226Z,4.57
2018-08-31T13:09:58.727Z,5.67
2018-08-31T13:12:27.235Z,5.40
2018-08-31T13:14:55.724Z,4.90
2018-08-31T13:17:24.189Z,5.10
2018-08-31T13:19:52.699Z,4.50
2018-08-31T13:22:21.140Z,4.43
2018-08-31T13:24:49.669Z,5.43
2018-08-31T13:27:18.170Z,4.90
2018-08-31T13:29:46.658Z,4.23
2018-08-31T13:32:15.185Z,4.47
2018-08-31T13:34:43.709Z,4.37
2018-08-31T13:37:12.168Z,5.23
2018-08-31T13:39:40.661Z,4.17
2018-08-31T13:42:09.163Z,4.67
2018-08-31T13:44:37.653Z,4.87
2018-08-31T13:47:06.120Z,4.47
2018-08-31T13:49:34.613Z,4.00
2018-08-31T13:52:03.259Z,3.80
2018-08-31T13:54:32.079Z,4.17
2018-08-31T13:57:00.591Z,4.07
2018-08-31T13:59:29.047Z,4.10
2018-08-31T14:01:57.557Z,4.03
2018-08-31T14:04:26.459Z,3.97
2018-08-31T14:06:54.944Z,3.83
2018-08-31T14:09:23.543Z,3.60
2018-08-31T14:11:51.977Z,3.50
2018-08-31T14:14:20.445Z,3.40
2018-08-31T14:16:50.169Z,3.70
2018-08-31T14:19:18.649Z,3.60
2018-08-31T14:21:47.161Z,3.20
2018-08-31T14:24:15.642Z,3.73
2018-08-31T14:26:44.166Z,5.60
2018-08-31T14:29:12.640Z,4.37
2018-08-31T14:31:41.163Z,5.67
2018-08-31T14:34:09.629Z,19.23
2018-08-31T14:36:38.198Z,28.40
2018-08-31T14:39:07.667Z,48.53
2018-08-31T14:41:36.173Z,33.93
2018-08-31T14:44:04.964Z,18.27
2018-08-31T14:46:33.685Z,9.07
2018-08-31T14:49:02.328Z,31.07
2018-08-31T14:51:30.869Z,133.17
2018-08-31T14:53:59.369Z,85.27
2018-08-31T14:56:27.877Z,22.87
2018-08-31T14:58:56.349Z,13.10
2018-08-31T15:01:24.863Z,15.70
2018-08-31T15:03:53.411Z,7.03
2018-08-31T15:06:21.849Z,7.87
2018-08-31T15:08:50.312Z,5.10
2018-08-31T15:11:18.785Z,6.87
2018-08-31T15:13:47.290Z,8.27
2018-08-31T15:16:15.820Z,7.37
2018-08-31T15:18:44.304Z,5.70
2018-08-31T15:21:12.821Z,4.50
2018-08-31T15:23:41.413Z,6.27
2018-08-31T15:26:09.921Z,5.80
2018-08-31T15:28:38.420Z,5.67
2018-08-31T15:31:06.995Z,4.47
2018-08-31T15:33:35.449Z,4.10
2018-08-31T15:36:03.928Z,5.00
2018-08-31T15:38:32.437Z,4.10
2018-08-31T15:41:01.480Z,4.60
2018-08-31T15:43:29.941Z,5.00
2018-08-31T15:45:58.467Z,6.03
2018-08-31T15:48:26.921Z,5.47
2018-08-31T15:50:55.538Z,6.50
2018-08-31T15:53:24.075Z,6.23
2018-08-31T15:55:52.596Z,6.70
2018-08-31T15:58:21.082Z,6.50
2018-08-31T16:00:49.561Z,6.70
2018-08-31T16:03:18.052Z,5.90
2018-08-31T16:05:46.518Z,6.10
2018-08-31T16:08:15.399Z,6.10
2018-08-31T16:10:43.905Z,6.67
2018-08-31T16:13:12.406Z,6.23
2018-08-31T16:15:40.889Z,6.23
2018-08-31T16:18:09.388Z,13.67
2018-08-31T16:20:37.896Z,8.73
2018-08-31T16:23:06.411Z,15.83
2018-08-31T16:25:34.890Z,13.57
2018-08-31T16:28:03.405Z,7.40
2018-08-31T16:30:32.257Z,8.83
2018-08-31T16:33:00.740Z,16.07
2018-08-31T16:35:29.248Z,10.90
2018-08-31T16:37:57.765Z,11.60
2018-08-31T16:40:26.236Z,12.90
2018-08-31T16:42:56.048Z,9.93
2018-08-31T16:45:24.561Z,15.07
2018-08-31T16:47:53.081Z,20.13
2018-08-31T16:50:21.554Z,20.53
2018-08-31T16:52:50.064Z,17.63
2018-08-31T16:55:18.554Z,11.00
2018-08-31T16:57:47.057Z,12.27
2018-08-31T17:00:15.639Z,10.43
2018-08-31T17:02:44.079Z,13.33
2018-08-31T17:05:12.557Z,12.07
2018-08-31T17:07:41.216Z,10.93
2018-08-31T17:10:09.702Z,9.13
2018-08-31T17:12:38.243Z,9.23
2018-08-31T17:15:06.798Z,7.80
2018-08-31T17:17:35.277Z,7.90
2018-08-31T17:20:05.071Z,9.17
2018-08-31T17:22:33.637Z,7.13
2018-08-31T17:25:02.266Z,7.07
2018-08-31T17:27:36.407Z,8.20
2018-08-31T17:30:20.717Z,6.87
2018-08-31T17:32:54.625Z,7.03
2018-08-31T17:35:28.497Z,7.30
2018-08-31T17:37:59.780Z,7.07
2018-08-31T17:40:28.373Z,7.37
2018-08-31T17:42:57.572Z,6.80
2018-08-31T17:45:26.146Z,7.40
2018-08-31T17:47:54.648Z,7.47
2018-08-31T17:50:23.147Z,7.47
2018-08-31T17:52:51.697Z,8.33
2018-08-31T17:55:20.163Z,7.97
2018-08-31T17:57:48.698Z,8.47
2018-08-31T18:00:17.185Z,7.90
2018-08-31T18:02:45.722Z,7.33
2018-08-31T18:05:14.245Z,7.27
2018-08-31T18:07:42.756Z,6.67
2018-08-31T18:10:11.236Z,7.07
2018-08-31T18:12:39.718Z,6.33
2018-08-31T18:15:08.229Z,6.30
2018-08-31T18:17:36.725Z,7.37
2018-08-31T18:20:05.262Z,7.00
2018-08-31T18:22:33.860Z,8.07
2018-08-31T18:25:03.775Z,8.37
2018-08-31T18:27:32.494Z,6.93
2018-08-31T18:30:02.392Z,15.33
2018-08-31T18:32:31.068Z,23.93
2018-08-31T18:34:59.586Z,29.07
2018-08-31T18:37:28.050Z,21.33
2018-08-31T18:39:57.069Z,55.77
2018-08-31T18:42:25.674Z,20.00
2018-08-31T18:44:54.235Z,15.50
2018-08-31T18:47:22.759Z,21.93
2018-08-31T18:49:51.623Z,9.87
2018-08-31T18:52:20.466Z,16.33
2018-08-31T18:54:48.953Z,12.73
2018-08-31T18:57:17.482Z,10.40
2018-08-31T18:59:46.142Z,8.47
2018-08-31T19:02:14.650Z,10.27
2018-08-31T19:04:43.148Z,10.83
2018-08-31T19:07:11.822Z,8.67
2018-08-31T19:09:40.557Z,8.03
2018-08-31T19:12:09.171Z,8.00
2018-08-31T19:14:37.625Z,7.40
2018-08-31T19:17:06.150Z,7.70
2018-08-31T19:19:34.657Z,7.57
2018-08-31T19:22:03.149Z,7.50
2018-08-31T19:24:31.740Z,7.47
2018-08-31T19:27:00.219Z,7.13
2018-08-31T19:29:29.201Z,6.93
2018-08-31T19:31:58.787Z,7.60
2018-08-31T19:34:27.284Z,7.53
2018-08-31T19:36:55.809Z,7.40
2018-08-31T19:39:24.320Z,7.33
2018-08-31T19:41:52.805Z,7.00
2018-08-31T19:44:21.316Z,7.80
2018-08-31T19:46:49.808Z,7.40
2018-08-31T19:49:18.297Z,9.63
2018-08-31T19:51:46.760Z,9.03
2018-08-31T19:54:15.255Z,8.70
2018-08-31T19:56:43.784Z,9.27
2018-08-31T19:59:12.603Z,10.30
2018-08-31T20:01:41.089Z,8.23
2018-08-31T20:04:09.761Z,9.53
2018-08-31T20:06:38.376Z,9.17
2018-08-31T20:09:07.549Z,9.60
2018-08-31T20:11:36.080Z,12.17
2018-08-31T20:14:05.932Z,10.80
2018-08-31T20:16:34.632Z,10.70
2018-08-31T20:19:03.180Z,10.30
2018-08-31T20:21:31.748Z,10.03
2018-08-31T20:24:00.444Z,11.50
2018-08-31T20:26:29.128Z,11.60
2018-08-31T20:28:57.653Z,10.60
2018-08-31T20:31:26.286Z,9.03
2018-08-31T20:33:54.904Z,8.77
2018-08-31T20:36:23.412Z,11.10
2018-08-31T20:38:52.004Z,9.83
2018-08-31T20:41:20.516Z,11.50
2018-08-31T20:43:49.044Z,14.50
2018-08-31T20:46:17.588Z,11.97
2018-08-31T20:48:46.119Z,10.60
2018-08-31T20:51:14.624Z,9.70
2018-08-31T20:53:43.164Z,9.53
2018-08-31T20:56:11.688Z,9.70
2018-08-31T20:58:40.157Z,9.63
2018-08-31T21:01:08.787Z,9.30
2018-08-31T21:03:37.305Z,9.03
2018-08-31T21:06:05.917Z,9.30
2018-08-31T21:08:34.393Z,9.67
2018-08-31T21:11:02.881Z,12.87
2018-08-31T21:13:31.521Z,13.53
2018-08-31T21:16:00.021Z,11.43
2018-08-31T21:18:28.490Z,11.40
2018-08-31T21:20:57.015Z,11.60
2018-08-31T21:23:25.506Z,13.83
2018-08-31T21:25:54.010Z,14.20
2018-08-31T21:28:22.496Z,15.00
2018-08-31T21:30:50.989Z,15.33
2018-08-31T21:33:19.505Z,14.37
2018-08-31T21:35:47.996Z,12.80
2018-08-31T21:38:16.463Z,11.13
2018-08-31T21:40:44.989Z,10.33
2018-08-31T21:43:13.524Z,10.03
2018-08-31T21:45:42.036Z,8.83
2018-08-31T21:48:10.535Z,7.47
2018-08-31T21:50:39.065Z,7.70
2018-08-31T21:53:07.708Z,6.43
2018-08-31T21:55:36.179Z,6.20
2018-08-31T21:58:04.706Z,5.77
2018-08-31T22:00:37.493Z,5.77
2018-08-31T22:03:05.989Z,5.53
2018-08-31T22:05:34.457Z,5.07
2018-08-31T22:08:03.207Z,4.70
2018-08-31T22:10:31.695Z,4.33
2018-08-31T22:13:00.219Z,4.80
2018-08-31T22:15:28.686Z,5.30
2018-08-31T22:17:57.262Z,5.37
2018-08-31T22:20:25.764Z,6.13
2018-08-31T22:22:54.939Z,6.50
2018-08-31T22:25:24.341Z,7.17
2018-08-31T22:27:52.924Z,6.97
2018-08-31T22:30:21.417Z,7.17
2018-08-31T22:32:49.907Z,7.20
2018-08-31T22:35:18.369Z,6.80
2018-08-31T22:37:46.861Z,7.37
2018-08-31T22:40:15.441Z,7.17
2018-08-31T22:42:43.930Z,6.90
2018-08-31T22:45:12.380Z,7.40
2018-08-31T22:47:41.394Z,7.50
2018-08-31T22:50:10.097Z,7.93
2018-08-31T22:52:38.864Z,7.83
2018-08-31T22:55:07.534Z,6.63
2018-08-31T22:57:36.025Z,6.03
2018-08-31T23:00:04.656Z,6.03
2018-08-31T23:02:33.272Z,6.10
2018-08-31T23:05:01.987Z,5.63
2018-08-31T23:07:36.058Z,5.63
2018-08-31T23:10:05.087Z,5.50
2018-08-31T23:12:33.645Z,5.40
2018-08-31T23:15:02.152Z,5.00
2018-08-31T23:17:30.837Z,4.60
2018-08-31T23:19:59.809Z,4.57
2018-08-31T23:22:29.445Z,4.83
2018-08-31T23:25:01.604Z,4.77
2018-08-31T23:27:32.368Z,5.03
2018-08-31T23:30:02.478Z,4.97
2018-08-31T23:32:31.963Z,5.07
2018-08-31T23:35:02.603Z,4.73
2018-08-31T23:37:31.122Z,5.70
2018-08-31T23:39:59.755Z,5.20
2018-08-31T23:42:28.351Z,5.20
2018-08-31T23:44:56.827Z,10.37
2018-08-31T23:47:31.532Z,11.13
2018-08-31T23:50:00.048Z,8.30
2018-08-31T23:52:28.556Z,9.27
2018-08-31T23:54:57.115Z,8.00
2018-08-31T23:57:25.659Z,6.97
2018-08-31T23:59:54.128Z,6.30
